Challenge Peak — 9V9589 — position and weather

sailwx.info

Track history (hours):
 
Tides and Currents Weather Stations Pressure Air Temp Water Temp Dewpoint Dewpoint Depression Visibility Wind Speed Wind Dir Waves Ship Positions

Challenge Peak

Last reported at 2017-Aug-04 00:27 UTC. Time now 2017-Aug-19 20:37 UTC.
Position S 37°30' E 176°18'.
Warning: this ship's position is 15 days out of date.

Length 182 m; draft 11.9 m.

Type: Tanker. MMSI: 566433000.

Date/timePositionNaut miles runAvg speedWind from/ knotsBaromVisibWave heightAir tempDewpointWater temp
2017-Aug-04 00:27S 37°30' E 176°18'511.9
2017-Aug-04 00:00S 37°34' E 176°14'5 9.6
2017-Aug-03 23:30S 37°37' E 176°10'3 5.3
2017-Aug-03 23:01S 37°40' E 176°11'0 0.0
2017-Aug-03 22:28S 37°40' E 176°11'0 0.0
2017-Aug-03 22:01S 37°40' E 176°11'0 0.0
2017-Aug-03 21:31S 37°40' E 176°11'0 0.0
2017-Aug-03 21:01S 37°40' E 176°11'0 0.0
2017-Aug-03 20:31S 37°40' E 176°11'0 0.0
2017-Aug-03 20:01S 37°40' E 176°11'0 0.0
2017-Aug-03 19:27S 37°40' E 176°11'0 0.0
2017-Aug-03 19:01S 37°40' E 176°11'0 0.0
2017-Aug-03 18:30S 37°40' E 176°11'0 0.0
2017-Aug-03 17:58S 37°40' E 176°11'0 0.0
2017-Aug-03 17:31S 37°40' E 176°11'0 0.0
2017-Aug-03 17:01S 37°40' E 176°11'0 0.0
2017-Aug-03 16:28S 37°40' E 176°11'0 0.0
2017-Aug-03 16:01S 37°40' E 176°11'0 0.0
2017-Aug-03 15:31S 37°40' E 176°11'0 0.0
2017-Aug-03 15:01S 37°40' E 176°11'0 0.0
2017-Aug-03 14:00S 37°40' E 176°11'0 0.0
2017-Aug-03 13:31S 37°40' E 176°11'0 0.0
2017-Aug-03 12:58S 37°40' E 176°11'0 0.0
2017-Aug-03 12:28S 37°40' E 176°11'0 0.0
2017-Aug-03 12:00S 37°40' E 176°11'0 0.0
2017-Aug-03 11:31S 37°40' E 176°11'0 0.0
2017-Aug-03 11:01S 37°40' E 176°11'0 0.0
2017-Aug-03 10:28S 37°40' E 176°11'0 0.0
2017-Aug-03 10:01S 37°40' E 176°11'0 0.0
2017-Aug-03 09:28S 37°40' E 176°11'0 0.0
2017-Aug-03 08:58S 37°40' E 176°11'0 0.0
2017-Aug-03 08:31S 37°40' E 176°11'0 0.0
2017-Aug-03 08:00S 37°40' E 176°11'0 0.0
2017-Aug-03 07:28S 37°40' E 176°11'0 0.0
2017-Aug-03 06:58S 37°40' E 176°11'0 0.0
2017-Aug-03 06:31S 37°40' E 176°11'0 0.0
2017-Aug-03 06:01S 37°40' E 176°11'0 0.0
2017-Aug-03 05:27S 37°40' E 176°11'0 0.0
2017-Aug-03 05:01S 37°40' E 176°11'0 0.0
2017-Aug-03 04:31S 37°40' E 176°11'0 0.0
2017-Aug-03 03:58S 37°40' E 176°11'0 0.0
2017-Aug-03 03:31S 37°40' E 176°11'0 0.0
2017-Aug-03 03:00S 37°40' E 176°11'0 0.0
2017-Aug-03 02:28S 37°40' E 176°11'0 0.0
2017-Aug-03 01:58S 37°40' E 176°11'0 0.0
2017-Aug-03 01:28S 37°40' E 176°11'0 0.0
2017-Aug-03 01:01S 37°40' E 176°11'0 0.0
2017-Aug-03 00:31S 37°40' E 176°11'0 0.0
2017-Aug-03 00:01S 37°40' E 176°11'0 0.0
2017-Aug-02 23:31S 37°40' E 176°11'0 0.0
2017-Aug-02 23:01S 37°40' E 176°11'0 0.0
2017-Aug-02 22:28S 37°40' E 176°11'0 0.0
2017-Aug-02 22:00S 37°40' E 176°11'1 2.1
2017-Aug-02 21:31S 37°39' E 176°11'4 7.3
2017-Aug-02 21:00S 37°35' E 176°12'3 5.2
2017-Aug-02 20:30S 37°34' E 176°14'1 1.3
2017-Aug-02 20:00S 37°33' E 176°14'0 0.6
2017-Aug-02 19:30S 37°33' E 176°14'0 0.5
2017-Aug-02 19:00S 37°33' E 176°14'1 1.8
2017-Aug-02 18:30S 37°34' E 176°14'2 3.3
2017-Aug-02 18:00S 37°35' E 176°13'4 8.1
2017-Aug-02 17:30S 37°31' E 176°14'610.5
2017-Aug-02 16:57S 37°26' E 176°17'  
Track history (hours):
 
Tides and Currents Weather Stations Pressure Air Temp Water Temp Dewpoint Dewpoint Depression Visibility Wind Speed Wind Dir Waves Ship Positions

Challenge Peak

Last reported at 2017-Aug-04 00:27 UTC. Time now 2017-Aug-19 20:37 UTC.
Position S 37°30' E 176°18'.
Warning: this ship's position is 15 days out of date.

Length 182 m; draft 11.9 m.

Type: Tanker. MMSI: 566433000.

Date/timePositionNaut miles runAvg speedWind from/ knotsBaromVisibWave heightAir tempDewpointWater temp
2017-Aug-04 00:27S 37°30' E 176°18'511.9
2017-Aug-04 00:00S 37°34' E 176°14'5 9.6
2017-Aug-03 23:30S 37°37' E 176°10'3 5.3
2017-Aug-03 23:01S 37°40' E 176°11'0 0.0
2017-Aug-03 22:28S 37°40' E 176°11'0 0.0
2017-Aug-03 22:01S 37°40' E 176°11'0 0.0
2017-Aug-03 21:31S 37°40' E 176°11'0 0.0
2017-Aug-03 21:01S 37°40' E 176°11'0 0.0
2017-Aug-03 20:31S 37°40' E 176°11'0 0.0
2017-Aug-03 20:01S 37°40' E 176°11'0 0.0
2017-Aug-03 19:27S 37°40' E 176°11'0 0.0
2017-Aug-03 19:01S 37°40' E 176°11'0 0.0
2017-Aug-03 18:30S 37°40' E 176°11'0 0.0
2017-Aug-03 17:58S 37°40' E 176°11'0 0.0
2017-Aug-03 17:31S 37°40' E 176°11'0 0.0
2017-Aug-03 17:01S 37°40' E 176°11'0 0.0
2017-Aug-03 16:28S 37°40' E 176°11'0 0.0
2017-Aug-03 16:01S 37°40' E 176°11'0 0.0
2017-Aug-03 15:31S 37°40' E 176°11'0 0.0
2017-Aug-03 15:01S 37°40' E 176°11'0 0.0
2017-Aug-03 14:00S 37°40' E 176°11'0 0.0
2017-Aug-03 13:31S 37°40' E 176°11'0 0.0
2017-Aug-03 12:58S 37°40' E 176°11'0 0.0
2017-Aug-03 12:28S 37°40' E 176°11'0 0.0
2017-Aug-03 12:00S 37°40' E 176°11'0 0.0
2017-Aug-03 11:31S 37°40' E 176°11'0 0.0
2017-Aug-03 11:01S 37°40' E 176°11'0 0.0
2017-Aug-03 10:28S 37°40' E 176°11'0 0.0
2017-Aug-03 10:01S 37°40' E 176°11'0 0.0
2017-Aug-03 09:28S 37°40' E 176°11'0 0.0
2017-Aug-03 08:58S 37°40' E 176°11'0 0.0
2017-Aug-03 08:31S 37°40' E 176°11'0 0.0
2017-Aug-03 08:00S 37°40' E 176°11'0 0.0
2017-Aug-03 07:28S 37°40' E 176°11'0 0.0
2017-Aug-03 06:58S 37°40' E 176°11'0 0.0
2017-Aug-03 06:31S 37°40' E 176°11'0 0.0
2017-Aug-03 06:01S 37°40' E 176°11'0 0.0
2017-Aug-03 05:27S 37°40' E 176°11'0 0.0
2017-Aug-03 05:01S 37°40' E 176°11'0 0.0
2017-Aug-03 04:31S 37°40' E 176°11'0 0.0
2017-Aug-03 03:58S 37°40' E 176°11'0 0.0
2017-Aug-03 03:31S 37°40' E 176°11'0 0.0
2017-Aug-03 03:00S 37°40' E 176°11'0 0.0
2017-Aug-03 02:28S 37°40' E 176°11'0 0.0
2017-Aug-03 01:58S 37°40' E 176°11'0 0.0
2017-Aug-03 01:28S 37°40' E 176°11'0 0.0
2017-Aug-03 01:01S 37°40' E 176°11'0 0.0
2017-Aug-03 00:31S 37°40' E 176°11'0 0.0
2017-Aug-03 00:01S 37°40' E 176°11'0 0.0
2017-Aug-02 23:31S 37°40' E 176°11'0 0.0
2017-Aug-02 23:01S 37°40' E 176°11'0 0.0
2017-Aug-02 22:28S 37°40' E 176°11'0 0.0
2017-Aug-02 22:00S 37°40' E 176°11'1 2.1
2017-Aug-02 21:31S 37°39' E 176°11'4 7.3
2017-Aug-02 21:00S 37°35' E 176°12'3 5.2
2017-Aug-02 20:30S 37°34' E 176°14'1 1.3
2017-Aug-02 20:00S 37°33' E 176°14'0 0.6
2017-Aug-02 19:30S 37°33' E 176°14'0 0.5
2017-Aug-02 19:00S 37°33' E 176°14'1 1.8
2017-Aug-02 18:30S 37°34' E 176°14'2 3.3
2017-Aug-02 18:00S 37°35' E 176°13'4 8.1
2017-Aug-02 17:30S 37°31' E 176°14'610.5
2017-Aug-02 16:57S 37°26' E 176°17'  

Dump ship's entire track history